Time;durP1;ratioP1;P1;durP2;ratioP2;P2;SDS_P1;SDS_P2;PMS_P1;PMS_P2;Temp;Humidity;BMP_temperature;BMP_pressure;BME280_temperature;BME280_humidity;BME280_pressure;Samples;Min_cycle;Max_cycle;Signal;HPM_P1;HPM_P2
2022/06/04 00:01:35;;;;;;;3.83;2.50;;;;;;;17.49;49.83;101731.41;5055616;28;20027;-61
2022/06/04 00:04:00;;;;;;;5.15;2.45;;;;;;;17.46;50.13;101728.72;5055559;28;20025;-61
2022/06/04 00:06:26;;;;;;;4.35;2.35;;;;;;;17.35;50.36;101716.31;5055470;28;20467;-61
2022/06/04 00:08:51;;;;;;;6.72;2.53;;;;;;;17.25;50.32;101710.09;5055290;28;20056;-61
2022/06/04 00:16:45;;;;;;;5.53;2.40;;;;;;;17.09;50.49;101711.06;5055361;28;20126;-61
2022/06/04 00:19:11;;;;;;;5.80;2.50;;;;;;;17.08;51.31;101710.13;5055141;28;20099;-61
2022/06/04 00:21:37;;;;;;;4.72;2.60;;;;;;;17.08;50.98;101704.78;5054864;28;20409;-61
2022/06/04 00:24:03;;;;;;;5.40;2.35;;;;;;;17.06;50.46;101714.59;5054890;28;20116;-61
2022/06/04 00:26:28;;;;;;;4.78;2.30;;;;;;;17.03;50.28;101712.81;5055005;28;20056;-61
2022/06/04 00:28:53;;;;;;;5.38;2.55;;;;;;;17.09;50.26;101725.28;5054874;28;20092;-61
2022/06/04 00:31:19;;;;;;;5.53;2.45;;;;;;;17.09;50.51;101714.59;5055005;28;20071;-61
2022/06/04 00:33:45;;;;;;;4.57;2.50;;;;;;;17.02;50.57;101732.41;5055106;28;20029;-61
2022/06/04 00:36:12;;;;;;;4.07;2.50;;;;;;;16.95;50.49;101727.97;5054274;28;20057;-61
2022/06/04 00:38:37;;;;;;;7.28;2.30;;;;;;;16.93;50.62;101726.19;5054631;28;20025;-61
2022/06/04 00:41:25;;;;;;;5.43;2.30;;;;;;;16.99;50.40;101735.06;5054618;28;20039;-61
2022/06/04 00:44:13;;;;;;;4.13;2.60;;;;;;;17.00;50.38;101738.63;5054630;28;20484;-61
2022/06/04 00:46:42;;;;;;;6.75;2.65;;;;;;;16.92;50.27;101727.09;5054566;28;20059;-61
2022/06/04 00:49:09;;;;;;;4.53;2.50;;;;;;;16.78;50.93;101716.41;5054325;28;20114;-61
2022/06/04 00:51:35;;;;;;;4.43;2.60;;;;;;;16.81;50.85;101721.75;5054242;28;20458;-61
2022/06/04 00:54:00;;;;;;;5.00;2.30;;;;;;;16.71;50.75;101719.97;5054543;28;20044;-61
2022/06/04 00:56:34;;;;;;;4.55;2.42;;;;;;;16.61;50.74;101727.06;5054297;28;20475;-61
2022/06/04 00:59:41;;;;;;;3.75;2.35;;;;;;;16.64;51.10;101735.06;5054370;28;20033;-61
2022/06/04 01:02:25;;;;;;;6.00;2.70;;;;;;;16.63;50.84;101741.31;5054336;28;20029;-61
2022/06/04 01:05:18;;;;;;;5.45;2.55;;;;;;;16.68;50.71;101750.19;5054235;28;20032;-61
2022/06/04 01:07:58;;;;;;;5.15;2.40;;;;;;;16.65;51.32;101759.97;5054103;28;20104;-62
2022/06/04 01:10:44;;;;;;;3.13;2.30;;;;;;;16.55;50.84;101766.22;5053994;28;20032;-61
2022/06/04 01:13:46;;;;;;;6.03;2.92;;;;;;;16.58;50.84;101793.78;4973123;28;20106;-61
2022/06/04 01:16:12;;;;;;;;;;;;;;;16.58;50.73;101788.44;4961788;28;20038;-61
2022/06/04 01:18:47;;;;;;;8.57;2.70;;;;;;;16.45;51.05;101782.22;4973282;28;19993;-61
2022/06/04 01:21:31;;;;;;;4.78;2.70;;;;;;;16.43;51.06;101783.09;4973038;28;20289;-61
2022/06/04 01:24:35;;;;;;;3.55;2.45;;;;;;;16.44;51.25;101779.53;4973095;28;20046;-61
2022/06/04 01:27:21;;;;;;;6.20;2.50;;;;;;;16.42;51.58;101784.88;4972983;28;20069;-61
2022/06/04 01:30:16;;;;;;;4.78;2.55;;;;;;;16.37;51.24;101781.31;4972543;28;20515;-61
2022/06/04 01:32:47;;;;;;;4.90;2.50;;;;;;;16.32;51.34;101777.75;4972768;28;20179;-61
2022/06/04 01:35:24;;;;;;;4.60;2.58;;;;;;;16.31;51.93;101770.59;4972807;28;20392;-61
2022/06/04 01:38:11;;;;;;;4.28;2.45;;;;;;;16.24;51.59;101776.84;4972964;28;20042;-61
2022/06/04 01:41:03;;;;;;;5.70;2.50;;;;;;;16.20;51.88;101783.03;4972873;28;20035;-61
2022/06/04 01:43:45;;;;;;;3.90;2.45;;;;;;;16.18;51.81;101779.47;4972474;28;20062;-61
2022/06/04 01:46:20;;;;;;;6.85;2.63;;;;;;;16.15;52.16;101785.69;4972878;28;20142;-61
2022/06/04 01:48:56;;;;;;;6.32;2.78;;;;;;;16.04;52.75;101798.09;4972197;28;20114;-61
2022/06/04 01:51:26;;;;;;;5.43;2.60;;;;;;;15.94;52.64;101801.63;5049805;28;20036;-61
2022/06/04 01:53:59;;;;;;;3.45;2.60;;;;;;;15.93;52.79;101806.06;5053698;28;20406;-61
2022/06/04 01:56:39;;;;;;;6.47;3.00;;;;;;;15.94;52.87;101794.50;5053259;28;20121;-61
2022/06/04 01:59:18;;;;;;;7.03;2.58;;;;;;;15.92;53.21;101806.94;5053273;28;20052;-61
2022/06/04 02:01:46;;;;;;;6.50;2.80;;;;;;;15.89;53.35;101806.06;5053595;28;20110;-60
2022/06/04 02:04:27;;;;;;;7.10;2.80;;;;;;;15.83;53.03;101812.22;5053364;28;20033;-61
2022/06/04 02:09:45;;;;;;;7.68;2.70;;;;;;;15.85;53.22;101802.47;5053485;28;20035;-61
2022/06/04 02:12:12;;;;;;;6.63;2.83;;;;;;;15.83;53.60;101795.34;5053056;28;20029;-61
2022/06/04 02:14:39;;;;;;;6.50;2.78;;;;;;;15.82;53.93;101797.13;5053386;28;20481;-61
2022/06/04 02:17:07;;;;;;;5.32;2.75;;;;;;;15.78;53.79;101798.00;5052991;28;20053;-62
2022/06/04 02:19:33;;;;;;;6.05;2.85;;;;;;;15.76;53.80;101798.00;5053029;28;20025;-61
2022/06/04 02:21:58;;;;;;;6.65;2.50;;;;;;;15.80;54.30;101809.53;5035208;28;20025;-61
2022/06/04 02:24:24;;;;;;;6.82;2.80;;;;;;;15.80;53.58;101811.31;5053021;28;20389;-61
2022/06/04 02:26:50;;;;;;;5.15;2.60;;;;;;;15.78;53.90;101817.53;5052905;28;20466;-61
2022/06/04 02:29:15;;;;;;;5.75;2.70;;;;;;;15.80;54.14;101813.97;5052886;28;20501;-61
2022/06/04 02:32:06;;;;;;;6.60;3.13;;;;;;;15.76;54.39;101807.78;5052904;28;20036;-61
2022/06/04 02:34:41;;;;;;;4.63;2.70;;;;;;;15.75;53.84;101806.84;5052866;28;20454;-61
2022/06/04 02:37:15;;;;;;;10.98;2.85;;;;;;;15.80;54.18;101798.00;5052780;28;20410;-61
2022/06/04 02:39:55;;;;;;;6.35;2.80;;;;;;;15.78;54.32;101804.22;5052925;28;20037;-61
2022/06/04 02:42:55;;;;;;;6.03;2.72;;;;;;;15.82;54.22;101802.47;5052568;28;20021;-62
2022/06/04 02:45:29;;;;;;;4.93;2.78;;;;;;;15.74;54.42;101794.41;4972160;28;20050;-61
2022/06/04 02:48:34;;;;;;;5.63;2.85;;;;;;;15.73;54.33;101794.41;4972098;28;20164;-61
2022/06/04 02:51:19;;;;;;;5.65;3.10;;;;;;;15.66;54.19;101789.94;4933380;29;20047;-61
2022/06/04 02:53:45;;;;;;;4.95;3.00;;;;;;;15.60;55.30;101773.91;4933632;28;20044;-61
2022/06/04 02:56:19;;;;;;;6.00;3.20;;;;;;;15.59;55.10;101765.03;4933477;29;20043;-61
2022/06/04 02:58:50;;;;;;;7.72;3.25;;;;;;;15.53;55.11;101755.19;4934783;29;20032;-61
2022/06/04 03:01:18;;;;;;;5.38;3.15;;;;;;;15.56;55.11;101756.13;4937042;29;20047;-61
2022/06/04 03:03:45;;;;;;;6.18;3.00;;;;;;;15.44;55.67;101743.63;4937277;29;20398;-61
2022/06/04 03:06:27;;;;;;;6.65;3.38;;;;;;;15.42;55.81;101748.06;4937221;29;20024;-61
2022/06/04 03:08:53;;;;;;;6.43;3.30;;;;;;;15.42;56.00;101750.72;4937121;29;20105;-61
2022/06/04 03:11:22;;;;;;;6.35;3.30;;;;;;;15.37;56.21;101747.13;4936955;29;20461;-61
2022/06/04 03:13:48;;;;;;;7.85;3.55;;;;;;;15.28;56.28;101739.97;4936863;29;20039;-61
2022/06/04 03:16:14;;;;;;;7.60;3.60;;;;;;;15.24;57.01;101743.50;4936933;29;20035;-61
2022/06/04 03:18:40;;;;;;;7.82;3.50;;;;;;;15.18;56.97;101746.13;4936942;29;20031;-61
2022/06/04 03:21:06;;;;;;;6.72;3.63;;;;;;;15.20;57.82;101755.94;4952321;28;20088;-61
2022/06/04 03:23:32;;;;;;;6.78;3.50;;;;;;;15.20;57.76;101752.34;4993823;28;20061;-61
2022/06/04 03:25:57;;;;;;;7.28;3.72;;;;;;;15.16;57.98;101754.13;5012044;28;20040;-61
2022/06/04 03:28:23;;;;;;;7.05;3.72;;;;;;;15.14;57.62;101745.22;5054893;28;20024;-61
2022/06/04 03:30:48;;;;;;;7.05;3.63;;;;;;;15.04;58.22;101738.06;5055061;28;20025;-61
2022/06/04 03:33:14;;;;;;;7.85;3.83;;;;;;;15.00;58.30;101737.16;5055248;28;20429;-61
2022/06/04 03:35:39;;;;;;;5.68;3.50;;;;;;;15.00;58.36;101741.59;5055245;28;20028;-61
2022/06/04 03:38:04;;;;;;;8.45;3.70;;;;;;;15.06;58.20;101746.06;5055152;28;20017;-61
2022/06/04 03:40:31;;;;;;;6.43;3.90;;;;;;;15.06;58.42;101754.94;5055083;28;20107;-61
2022/06/04 03:42:56;;;;;;;7.55;3.85;;;;;;;15.05;58.69;101762.91;5055206;28;20036;-61
2022/06/04 03:45:24;;;;;;;8.18;3.80;;;;;;;15.07;58.72;101766.47;5054775;28;20024;-61
2022/06/04 03:47:50;;;;;;;7.78;3.83;;;;;;;15.10;58.93;101770.03;5055172;28;20087;-61
2022/06/04 03:50:17;;;;;;;6.65;3.58;;;;;;;15.13;58.70;101778.06;5055007;28;20033;-61
2022/06/04 03:52:44;;;;;;;6.78;3.60;;;;;;;15.08;58.88;101755.84;5054991;28;20540;-61
2022/06/04 03:55:10;;;;;;;6.20;4.00;;;;;;;15.07;59.03;101753.16;5054786;28;20029;-61
2022/06/04 03:57:52;;;;;;;10.82;4.40;;;;;;;14.97;59.01;101757.53;5054805;28;20025;-61
2022/06/04 04:00:20;;;;;;;9.70;4.18;;;;;;;14.87;59.86;101767.22;5054624;28;20497;-61
2022/06/04 04:02:51;;;;;;;9.25;4.00;;;;;;;14.86;60.19;101773.44;5054944;28;20029;-61
2022/06/04 04:05:20;;;;;;;12.68;4.03;;;;;;;14.85;59.90;101776.94;5055198;28;20025;-61
2022/06/04 04:07:46;;;;;;;8.45;4.07;;;;;;;14.88;60.17;101776.97;5054822;28;20478;-61
2022/06/04 04:10:12;;;;;;;9.50;4.07;;;;;;;14.92;60.13;101784.09;5054172;28;20033;-60
2022/06/04 04:12:39;;;;;;;9.80;3.92;;;;;;;14.88;60.12;101789.41;5054487;28;20023;-61
2022/06/04 04:15:07;;;;;;;10.70;3.95;;;;;;;14.83;60.52;101778.72;5054789;28;20063;-60
2022/06/04 04:17:32;;;;;;;8.05;4.15;;;;;;;14.81;60.67;101788.44;5054062;28;20032;-61
2022/06/04 04:19:58;;;;;;;8.35;4.00;;;;;;;14.83;60.34;101789.38;5054498;28;20111;-61
2022/06/04 04:22:24;;;;;;;6.18;3.78;;;;;;;14.74;60.90;101787.50;5054119;28;20115;-61
2022/06/04 04:24:49;;;;;;;11.18;4.25;;;;;;;14.77;61.22;101799.94;5036764;28;20447;-61
2022/06/04 04:27:15;;;;;;;7.57;4.00;;;;;;;14.84;61.47;101784.94;5053949;28;20108;-62
2022/06/04 04:29:41;;;;;;;9.05;4.75;;;;;;;14.85;61.27;101786.69;5054103;28;20068;-61
2022/06/04 04:32:07;;;;;;;10.32;4.60;;;;;;;14.82;61.41;101786.66;5054090;28;20048;-61
2022/06/04 04:34:33;;;;;;;10.18;4.22;;;;;;;14.79;61.13;101779.56;5054213;28;20444;-61
2022/06/04 04:36:58;;;;;;;9.95;4.50;;;;;;;14.86;61.13;101791.13;5054178;28;20482;-61
2022/06/04 04:39:24;;;;;;;8.15;4.50;;;;;;;14.77;61.32;101791.94;5054077;28;20513;-61
2022/06/04 04:41:49;;;;;;;8.27;4.60;;;;;;;14.76;61.85;101790.19;5054106;28;20083;-61
2022/06/04 04:44:15;;;;;;;7.63;4.68;;;;;;;14.84;61.57;101806.22;5053670;28;20374;-61
2022/06/04 04:46:40;;;;;;;8.13;4.65;;;;;;;14.90;61.38;101800.94;5053887;28;20151;-62
2022/06/04 04:49:05;;;;;;;9.13;4.60;;;;;;;14.92;61.46;101812.50;5053572;28;20060;-61
2022/06/04 04:51:34;;;;;;;10.15;4.20;;;;;;;15.01;61.34;101817.88;5053753;28;20386;-61
2022/06/04 04:53:59;;;;;;;9.40;4.43;;;;;;;15.00;61.45;101825.00;5053623;28;20029;-62
2022/06/04 04:56:25;;;;;;;8.80;4.75;;;;;;;15.04;61.31;101833.91;5053669;28;20036;-61
2022/06/04 04:58:51;;;;;;;8.75;4.57;;;;;;;15.03;61.41;101830.34;5053470;28;20021;-61
2022/06/04 05:01:18;;;;;;;10.15;4.60;;;;;;;15.06;61.73;101828.56;5053467;28;20025;-61
2022/06/04 05:03:44;;;;;;;7.63;4.60;;;;;;;15.09;61.40;101828.59;5053598;28;20021;-61
2022/06/04 05:06:11;;;;;;;8.32;4.93;;;;;;;15.06;61.24;101829.47;5053620;28;20051;-61
2022/06/04 05:08:37;;;;;;;8.32;4.60;;;;;;;15.12;61.33;101833.97;5053532;28;20024;-61
2022/06/04 05:11:18;;;;;;;10.88;4.57;;;;;;;15.18;61.18;101826.91;5053311;28;20032;-61
2022/06/04 05:13:43;;;;;;;8.50;4.40;;;;;;;15.25;61.07;101818.09;5053573;28;20036;-61
2022/06/04 05:16:09;;;;;;;9.10;5.07;;;;;;;15.22;61.61;101815.41;5053220;28;20028;-61
2022/06/04 05:18:35;;;;;;;8.32;4.60;;;;;;;15.25;61.56;101818.09;5053561;28;20033;-61
2022/06/04 05:21:27;;;;;;;7.60;4.72;;;;;;;15.31;61.42;101819.88;5053067;28;20045;-61
2022/06/04 05:23:56;;;;;;;8.65;4.47;;;;;;;15.31;61.38;101824.31;5053315;28;20048;-61
2022/06/04 05:26:23;;;;;;;7.18;5.07;;;;;;;15.30;61.74;101842.09;5052977;28;20025;-61
2022/06/04 05:28:49;;;;;;;8.98;4.95;;;;;;;15.31;61.43;101856.28;5053032;28;20128;-61
2022/06/04 05:31:14;;;;;;;10.02;5.18;;;;;;;15.31;61.25;101849.19;5052976;28;20490;-61
2022/06/04 05:33:40;;;;;;;7.63;4.65;;;;;;;15.33;61.33;101841.19;5052993;28;20060;-61
2022/06/04 05:36:05;;;;;;;7.90;4.90;;;;;;;15.38;61.92;101835.03;5052958;28;20120;-61
2022/06/04 05:38:34;;;;;;;8.85;4.97;;;;;;;15.37;61.84;101829.69;5052860;28;20029;-61
2022/06/04 05:41:03;;;;;;;8.50;4.97;;;;;;;15.45;61.80;101833.28;5052655;28;20044;-61
2022/06/04 05:43:29;;;;;;;9.23;4.88;;;;;;;15.39;61.82;101851.91;5052789;28;20099;-61
2022/06/04 05:45:58;;;;;;;9.48;5.28;;;;;;;15.47;61.30;101852.84;5052733;28;20029;-61
2022/06/04 05:48:24;;;;;;;9.35;5.38;;;;;;;15.57;61.49;101852.03;5052424;28;20059;-61
2022/06/04 05:50:51;;;;;;;8.63;5.25;;;;;;;15.60;61.48;101853.81;5052963;28;20067;-61
2022/06/04 05:53:16;;;;;;;11.20;5.47;;;;;;;15.58;61.19;101855.56;5052564;28;20021;-61
2022/06/04 05:55:41;;;;;;;8.48;5.43;;;;;;;15.65;60.93;101850.34;5052412;28;20024;-61
2022/06/04 05:58:07;;;;;;;10.02;5.50;;;;;;;15.67;61.02;101853.91;5052569;28;20104;-61
2022/06/04 06:00:32;;;;;;;11.77;5.82;;;;;;;15.66;60.84;101862.75;5052428;28;20086;-61
2022/06/04 06:02:57;;;;;;;11.43;5.60;;;;;;;15.62;61.01;101862.69;5052673;28;20025;-61
2022/06/04 06:05:23;;;;;;;13.07;5.80;;;;;;;15.70;61.54;101869.00;5052450;28;20040;-61
2022/06/04 06:07:48;;;;;;;8.82;5.25;;;;;;;15.71;61.77;101865.44;5052702;28;20027;-61
2022/06/04 06:10:14;;;;;;;9.25;5.90;;;;;;;15.79;61.22;101866.41;5052185;28;20053;-61
2022/06/04 06:12:39;;;;;;;9.82;5.65;;;;;;;15.80;61.01;101861.94;5052199;28;20036;-61
2022/06/04 06:15:06;;;;;;;8.60;5.32;;;;;;;15.88;61.00;101863.78;5052349;28;20033;-61
2022/06/04 06:17:31;;;;;;;10.45;5.90;;;;;;;15.94;60.98;101868.28;5052601;28;20025;-61
2022/06/04 06:19:57;;;;;;;9.98;5.60;;;;;;;16.00;60.92;101858.50;5052207;28;20021;-61
2022/06/04 06:22:22;;;;;;;14.25;5.95;;;;;;;16.02;60.05;101863.88;5052334;28;20459;-61
2022/06/04 06:24:47;;;;;;;10.15;6.03;;;;;;;15.95;60.29;101862.94;5052309;28;20331;-61
2022/06/04 06:27:13;;;;;;;13.60;5.63;;;;;;;15.95;60.53;101862.94;5052191;28;20390;-61
2022/06/04 06:29:38;;;;;;;12.52;5.63;;;;;;;15.88;60.99;101862.88;5034240;28;20056;-61
2022/06/04 06:32:04;;;;;;;9.30;5.80;;;;;;;15.85;60.76;101871.78;5052082;28;20025;-61
2022/06/04 06:34:30;;;;;;;12.13;5.90;;;;;;;15.78;60.93;101870.84;5055012;28;20033;-61
2022/06/04 06:36:56;;;;;;;12.18;6.25;;;;;;;15.81;61.41;101877.97;5056256;28;20029;-60
2022/06/04 06:39:22;;;;;;;11.32;5.97;;;;;;;15.82;61.40;101889.53;5056223;28;20032;-61
2022/06/04 06:41:48;;;;;;;8.95;5.70;;;;;;;15.90;60.93;101890.47;5055855;28;20033;-61
2022/06/04 06:44:14;;;;;;;13.25;6.50;;;;;;;16.05;61.11;101884.31;5056453;28;20027;-61
2022/06/04 06:46:43;;;;;;;10.68;6.25;;;;;;;16.23;60.22;101889.72;5056226;28;20536;-61
2022/06/04 06:49:19;;;;;;;10.38;5.97;;;;;;;16.42;59.78;101883.56;5056141;28;20463;-61
2022/06/04 06:51:54;;;;;;;14.10;6.78;;;;;;;16.47;59.32;101881.81;5056255;28;20029;-61
2022/06/04 06:54:22;;;;;;;10.65;6.32;;;;;;;16.51;58.67;101894.25;5055885;28;20025;-61
2022/06/04 06:56:49;;;;;;;12.70;6.43;;;;;;;16.55;58.96;101892.50;5056165;28;20025;-61
2022/06/04 06:59:15;;;;;;;12.35;7.00;;;;;;;16.49;58.31;101887.16;5055865;28;20028;-61
2022/06/04 07:01:42;;;;;;;8.95;6.63;;;;;;;16.47;58.78;101884.47;5055914;28;20367;-61
2022/06/04 07:04:08;;;;;;;11.02;6.65;;;;;;;16.51;59.60;101885.38;5055858;28;20104;-61
2022/06/04 07:06:37;;;;;;;11.10;6.57;;;;;;;16.58;59.44;101875.63;5055899;28;20103;-61
2022/06/04 07:09:11;;;;;;;14.57;6.15;;;;;;;16.66;58.63;101877.41;5055401;28;20067;-61
2022/06/04 07:11:36;;;;;;;11.27;6.38;;;;;;;16.67;59.08;101879.19;5055855;28;20120;-61
2022/06/04 07:14:02;;;;;;;10.73;6.50;;;;;;;16.77;58.21;101886.34;5055542;28;20446;-61
2022/06/04 07:16:27;;;;;;;10.38;6.60;;;;;;;16.80;58.48;101888.16;5055605;28;20023;-61
2022/06/04 07:18:53;;;;;;;11.93;6.82;;;;;;;16.68;58.67;101885.41;5055790;28;20028;-61
2022/06/04 07:21:19;;;;;;;11.60;6.75;;;;;;;16.81;59.41;101878.38;5055482;28;20025;-61
2022/06/04 07:23:44;;;;;;;10.45;6.32;;;;;;;16.84;58.94;101886.38;5055291;28;20466;-61
2022/06/04 07:26:11;;;;;;;10.40;6.90;;;;;;;16.88;58.53;101886.38;5055480;28;20048;-61
2022/06/04 07:28:37;;;;;;;11.32;6.70;;;;;;;16.96;58.11;101889.97;5055504;28;20102;-61
2022/06/04 07:31:05;;;;;;;8.70;6.30;;;;;;;17.07;57.10;101889.94;5055218;28;20025;-61
2022/06/04 07:33:31;;;;;;;13.75;7.20;;;;;;;17.08;57.15;101894.41;5055530;28;20025;-61
2022/06/04 07:35:56;;;;;;;10.23;6.70;;;;;;;17.06;56.96;101897.97;5055322;28;20021;-61
2022/06/04 07:38:22;;;;;;;11.02;6.55;;;;;;;17.01;57.12;101906.00;5037424;28;20025;-61
2022/06/04 07:40:47;;;;;;;8.52;6.20;;;;;;;16.99;57.13;101905.97;5055375;28;20082;-61
2022/06/04 07:43:13;;;;;;;12.05;6.63;;;;;;;17.00;57.27;101907.78;5055480;28;20366;-61
2022/06/04 07:45:39;;;;;;;12.27;6.47;;;;;;;17.14;57.60;101904.22;5035887;28;20032;-61
2022/06/04 07:48:05;;;;;;;9.65;6.43;;;;;;;17.17;56.97;101910.47;5042675;28;20032;-62
2022/06/04 07:50:31;;;;;;;9.85;6.30;;;;;;;17.21;57.62;101914.88;5055642;28;20450;-61
2022/06/04 07:52:58;;;;;;;9.48;6.57;;;;;;;17.22;57.02;101907.78;5056674;28;20032;-60
2022/06/04 07:55:24;;;;;;;10.82;6.68;;;;;;;17.30;57.30;101906.00;5058490;28;20115;-61
2022/06/04 07:57:49;;;;;;;14.73;6.93;;;;;;;17.28;57.54;101905.09;5054890;28;20108;-61
2022/06/04 08:00:15;;;;;;;16.10;6.90;;;;;;;17.33;57.12;101892.63;5054917;28;20024;-61
2022/06/04 08:02:42;;;;;;;11.75;6.82;;;;;;;17.33;56.82;101905.09;5054747;28;20025;-61
2022/06/04 08:05:09;;;;;;;13.60;6.93;;;;;;;17.31;57.37;101909.56;5055150;28;20032;-62
2022/06/04 08:07:36;;;;;;;10.43;6.70;;;;;;;17.36;56.93;101910.44;5054663;28;20017;-61
2022/06/04 08:10:03;;;;;;;10.98;6.70;;;;;;;17.46;57.29;101910.44;5054493;28;20021;-61
2022/06/04 08:12:34;;;;;;;18.63;6.68;;;;;;;17.45;56.23;101907.78;5054588;28;20059;-61
2022/06/04 08:15:00;;;;;;;11.32;6.82;;;;;;;17.50;56.26;101908.66;5054659;28;20108;-61
2022/06/04 08:17:26;;;;;;;10.73;6.50;;;;;;;17.62;56.56;101905.09;5054674;28;20401;-61
2022/06/04 08:19:52;;;;;;;14.30;6.90;;;;;;;17.65;56.31;101897.97;5054484;28;20479;-61
2022/06/04 08:22:17;;;;;;;13.98;7.40;;;;;;;17.68;56.03;101900.59;5054493;28;20068;-61
2022/06/04 08:24:42;;;;;;;11.18;7.25;;;;;;;17.71;56.56;101891.69;5054255;28;20090;-61
2022/06/04 08:27:08;;;;;;;12.45;7.20;;;;;;;17.80;56.13;101899.72;5054528;28;20104;-61
2022/06/04 08:29:37;;;;;;;9.85;6.53;;;;;;;17.88;56.06;101897.03;5054148;28;20041;-61
2022/06/04 08:32:04;;;;;;;11.95;7.40;;;;;;;17.90;55.17;101896.16;5054301;28;20055;-61
2022/06/04 08:34:30;;;;;;;11.38;6.63;;;;;;;17.96;55.29;101890.78;5054590;28;20380;-61
2022/06/04 08:36:56;;;;;;;11.98;7.57;;;;;;;17.90;55.25;101885.47;5054300;28;20033;-61
2022/06/04 08:39:22;;;;;;;13.77;6.93;;;;;;;18.06;55.46;101880.94;5054021;28;20086;-61
2022/06/04 08:42:01;;;;;;;11.95;6.78;;;;;;;18.07;55.06;101879.13;5054106;28;20354;-61
2022/06/04 08:44:28;;;;;;;11.20;7.60;;;;;;;18.02;54.59;101871.13;5054164;28;20363;-61
2022/06/04 08:47:01;;;;;;;11.40;7.07;;;;;;;18.07;55.94;101871.13;5054005;28;20095;-61
2022/06/04 08:49:37;;;;;;;11.63;7.47;;;;;;;18.21;55.55;101882.69;5053725;28;20071;-61
2022/06/04 08:52:14;;;;;;;10.35;6.90;;;;;;;18.42;55.72;101887.94;5053622;28;20025;-61
2022/06/04 08:57:33;;;;;;;11.93;7.03;;;;;;;18.59;54.59;101901.22;5053316;28;20063;-61
2022/06/04 09:00:14;;;;;;;10.48;7.15;;;;;;;18.76;53.47;101914.56;5053952;28;20025;-61
2022/06/04 09:02:55;;;;;;;14.57;7.10;;;;;;;18.86;53.83;101926.09;5053598;28;20374;-61
2022/06/04 09:05:38;;;;;;;11.50;7.22;;;;;;;18.87;52.56;101926.06;5054002;28;20032;-61
2022/06/04 09:08:17;;;;;;;15.02;6.82;;;;;;;18.90;54.22;101930.53;5053637;28;20421;-61
2022/06/04 09:10:58;;;;;;;10.98;6.45;;;;;;;19.07;53.58;101920.59;5053831;28;20037;-62
2022/06/04 09:13:36;;;;;;;12.10;7.38;;;;;;;19.20;52.15;101914.22;5053531;28;20025;-61
2022/06/04 09:16:18;;;;;;;10.60;7.00;;;;;;;19.33;52.49;101915.03;5053680;28;20025;-61
2022/06/04 09:18:49;;;;;;;13.30;6.70;;;;;;;19.40;52.41;101905.13;5053508;28;20063;-61
2022/06/04 09:21:15;;;;;;;9.85;6.85;;;;;;;19.51;51.26;101908.59;5053478;28;20036;-62
2022/06/04 09:23:48;;;;;;;10.75;7.07;;;;;;;19.77;52.18;101895.84;5053528;28;20035;-61
2022/06/04 09:26:13;;;;;;;12.68;6.97;;;;;;;20.02;50.26;101893.78;5053600;28;20082;-61
2022/06/04 09:28:39;;;;;;;14.10;7.10;;;;;;;20.31;50.62;101902.41;5053479;28;20049;-62
2022/06/04 09:31:41;;;;;;;13.38;6.90;;;;;;;20.70;50.44;101892.97;5055265;28;20268;-61
2022/06/04 09:34:22;;;;;;;12.38;6.80;;;;;;;21.39;49.43;101897.25;5054950;28;20037;-61
2022/06/04 09:36:49;;;;;;;12.70;7.20;;;;;;;21.84;47.65;101898.25;5053832;28;20466;-60
2022/06/04 09:39:19;;;;;;;12.07;6.93;;;;;;;22.42;45.87;101904.25;5053151;28;20260;-61
2022/06/04 09:41:53;;;;;;;15.35;7.40;;;;;;;22.56;46.06;101903.94;5053129;28;20485;-61
2022/06/04 09:44:18;;;;;;;10.75;6.90;;;;;;;22.85;44.01;101898.78;5053099;28;20036;-61
2022/06/04 09:46:46;;;;;;;13.48;7.15;;;;;;;22.88;44.17;101909.50;5053131;28;20095;-61
2022/06/04 09:49:54;;;;;;;12.23;6.82;;;;;;;23.07;44.51;101909.97;5053113;28;20053;-61
2022/06/04 09:52:41;;;;;;;10.93;6.57;;;;;;;23.18;43.63;101898.94;5052948;28;20039;-61
2022/06/04 09:55:16;;;;;;;12.50;6.90;;;;;;;23.23;43.76;101907.78;5052757;28;20024;-61
2022/06/04 09:57:42;;;;;;;8.95;7.03;;;;;;;23.43;42.98;101912.69;5052958;28;20179;-61
2022/06/04 10:00:24;;;;;;;12.38;7.07;;;;;;;23.89;43.54;101914.19;5053019;28;20029;-61
2022/06/04 10:02:53;;;;;;;;;;;;;;;24.22;41.50;101915.94;5053102;28;20037;-61
2022/06/04 10:05:21;;;;;;;9.82;6.72;;;;;;;24.39;41.25;101906.47;5052965;28;20400;-61
2022/06/04 10:07:46;;;;;;;8.75;7.00;;;;;;;24.63;40.03;101910.28;5051904;28;20486;-61
2022/06/04 10:10:27;;;;;;;11.68;6.88;;;;;;;25.04;40.23;101908.06;5052538;28;20044;-61
2022/06/04 10:15:46;;;;;;;9.93;6.88;;;;;;;25.67;39.27;101921.25;5052981;28;20040;-61
2022/06/04 10:18:16;;;;;;;9.57;7.15;;;;;;;25.55;37.05;101923.50;5052429;28;20099;-61
2022/06/04 10:20:50;;;;;;;9.25;6.50;;;;;;;25.23;38.12;101918.25;5052824;28;20029;-62
2022/06/04 10:23:16;;;;;;;12.30;7.97;;;;;;;24.89;38.45;101918.44;5052459;28;20029;-61
2022/06/04 10:26:19;;;;;;;11.00;7.35;;;;;;;25.06;38.94;101917.91;5052605;28;20048;-61
2022/06/04 10:28:53;;;;;;;13.48;7.78;;;;;;;24.88;38.87;101913.06;5052132;28;20045;-61
2022/06/04 10:31:24;;;;;;;10.88;7.60;;;;;;;24.59;38.52;101914.88;5052687;28;20132;-61
2022/06/04 10:34:03;;;;;;;8.98;6.80;;;;;;;24.55;39.68;101915.91;5052239;28;20056;-61
2022/06/04 10:36:50;;;;;;;10.20;7.35;;;;;;;24.76;40.24;101916.19;5052463;28;20061;-61
2022/06/04 10:39:40;;;;;;;11.02;7.45;;;;;;;25.04;39.62;101911.63;5052492;28;20106;-62
2022/06/04 10:42:39;;;;;;;9.27;7.38;;;;;;;25.19;39.81;101919.28;5052354;28;20033;-61
2022/06/04 10:45:32;;;;;;;14.02;7.60;;;;;;;25.33;39.15;101921.53;5052196;28;20025;-61
2022/06/04 10:48:18;;;;;;;9.68;7.00;;;;;;;25.41;38.24;101921.28;5052357;28;20028;-62
2022/06/04 10:53:55;;;;;;;12.52;7.75;;;;;;;25.25;38.71;101922.72;5052317;28;20215;-61
2022/06/04 10:56:30;;;;;;;11.77;7.78;;;;;;;25.14;38.32;101921.28;5052099;28;20041;-61
2022/06/04 10:59:20;;;;;;;10.88;8.00;;;;;;;24.99;38.48;101927.13;5052277;28;20086;-62
2022/06/04 11:01:54;;;;;;;13.35;7.60;;;;;;;24.88;40.76;101931.97;5051567;28;20091;-61
2022/06/04 11:04:41;;;;;;;14.50;7.97;;;;;;;24.98;39.75;101920.84;5052119;28;20371;-62
2022/06/04 11:07:18;;;;;;;11.82;8.10;;;;;;;25.29;39.65;101927.97;5052036;28;20107;-62
2022/06/04 11:09:44;;;;;;;12.48;7.40;;;;;;;25.58;38.54;101924.28;5052410;28;20458;-61
2022/06/04 11:12:41;;;;;;;11.55;7.97;;;;;;;25.57;36.97;101922.53;5051821;28;20017;-62
2022/06/04 11:15:15;;;;;;;13.48;7.70;;;;;;;25.63;38.86;101922.31;5052374;28;20036;-62
2022/06/04 11:17:50;;;;;;;12.82;8.15;;;;;;;26.04;37.79;101919.06;5052056;28;20029;-61
2022/06/04 11:20:20;;;;;;;12.00;7.60;;;;;;;26.22;36.96;101921.13;5053994;28;20386;-61
2022/06/04 11:23:03;;;;;;;11.02;7.68;;;;;;;26.33;37.11;101921.56;5055558;28;20029;-61
2022/06/04 11:25:32;;;;;;;10.07;7.30;;;;;;;26.52;35.83;101929.06;5055787;28;20033;-61
2022/06/04 11:28:07;;;;;;;12.30;7.78;;;;;;;26.32;35.21;101927.06;5055837;28;20049;-62
2022/06/04 11:30:58;;;;;;;8.93;7.60;;;;;;;26.35;36.27;101924.25;5057108;28;20433;-62
2022/06/04 11:33:51;;;;;;;11.17;7.27;;;;;;;26.38;36.18;101927.72;5056139;28;20116;-61
2022/06/04 11:36:43;;;;;;;11.73;7.68;;;;;;;26.29;36.32;101932.59;5055791;28;20032;-62
2022/06/04 11:39:21;;;;;;;10.88;7.13;;;;;;;26.15;37.29;101928.56;5054909;28;20037;-61
2022/06/04 11:42:01;;;;;;;12.07;7.75;;;;;;;25.97;36.34;101921.13;5055463;28;20056;-62
2022/06/04 11:45:04;;;;;;;11.65;8.48;;;;;;;26.03;37.78;101910.06;5055499;28;20407;-61
2022/06/04 11:47:37;;;;;;;10.27;7.70;;;;;;;26.52;36.76;101907.38;5055414;28;20436;-62
2022/06/04 11:50:05;;;;;;;10.95;7.60;;;;;;;26.94;36.03;101905.66;5055168;28;20029;-62
2022/06/04 11:52:33;;;;;;;13.40;7.90;;;;;;;26.98;34.50;101901.00;5055124;28;20029;-62
2022/06/04 11:55:25;;;;;;;12.68;7.95;;;;;;;27.12;34.83;101898.63;5055083;28;20036;-62
2022/06/04 11:58:20;;;;;;;14.32;8.30;;;;;;;27.27;35.06;101886.22;5055284;28;20039;-62
2022/06/04 12:00:48;;;;;;;12.65;8.40;;;;;;;27.12;35.14;101886.88;5055029;28;20035;-61